Time;durP1;ratioP1;P1;durP2;ratioP2;P2;SDS_P1;SDS_P2;PMS_P1;PMS_P2;Temp;Humidity;BMP_temperature;BMP_pressure;BME280_temperature;BME280_humidity;BME280_pressure;Samples;Min_cycle;Max_cycle;Signal;HPM_P1;HPM_P2
2021/03/21 00:00:40;;;;;;;10.03;4.40;;;;;;;2.29;52.62;96824.56;5041507;28;20534;-88
2021/03/21 00:03:07;;;;;;;8.27;4.50;;;;;;;2.44;52.18;96821.78;5041317;28;20474;-88
2021/03/21 00:05:33;;;;;;;6.30;4.90;;;;;;;2.53;51.72;96817.00;5041686;28;20486;-88
2021/03/21 00:08:03;;;;;;;4.60;3.20;;;;;;;2.49;52.04;96821.06;5041023;28;20478;-88
2021/03/21 00:10:32;;;;;;;11.90;4.67;;;;;;;2.45;51.06;96817.88;5041263;28;20927;-88
2021/03/21 00:12:59;;;;;;;5.40;3.63;;;;;;;2.39;51.94;96817.13;5041735;28;20469;-88
2021/03/21 00:15:25;;;;;;;6.00;3.63;;;;;;;2.44;52.17;96806.53;5041320;28;20462;-88
2021/03/21 00:17:54;;;;;;;4.50;3.43;;;;;;;2.45;52.04;96815.22;5041287;28;20521;-89
2021/03/21 00:20:24;;;;;;;5.13;4.50;;;;;;;2.38;51.87;96808.41;5040934;28;20914;-87
2021/03/21 00:22:50;;;;;;;6.27;3.87;;;;;;;2.43;51.86;96809.66;5041053;28;20518;-89
2021/03/21 00:25:19;;;;;;;5.93;3.90;;;;;;;2.45;51.96;96813.28;5041049;28;20452;-89
2021/03/21 00:27:45;;;;;;;7.63;4.17;;;;;;;2.40;52.23;96813.25;5040858;28;20445;-89
2021/03/21 00:30:15;;;;;;;5.00;3.53;;;;;;;2.50;51.44;96807.28;5041410;28;20521;-89
2021/03/21 00:32:41;;;;;;;5.80;3.83;;;;;;;2.50;52.01;96803.91;5040829;28;20478;-89
2021/03/21 00:35:08;;;;;;;9.63;3.70;;;;;;;2.46;51.90;96804.13;5040410;28;20504;-89
2021/03/21 00:37:38;;;;;;;6.57;4.03;;;;;;;2.41;52.36;96809.41;5041008;28;20538;-89
2021/03/21 00:40:07;;;;;;;6.00;3.30;;;;;;;2.48;52.09;96806.28;5040936;28;20444;-89
2021/03/21 00:42:33;;;;;;;6.27;4.30;;;;;;;2.47;51.76;96802.91;5041009;28;20519;-88
2021/03/21 00:44:59;;;;;;;8.83;4.20;;;;;;;2.43;52.50;96801.66;5040213;28;20561;-88
2021/03/21 00:47:25;;;;;;;5.20;3.47;;;;;;;2.47;52.03;96800.25;5040477;28;20467;-88
2021/03/21 00:49:51;;;;;;;5.27;3.50;;;;;;;2.40;52.16;96803.34;5040533;28;20447;-88
2021/03/21 00:52:18;;;;;;;3.80;3.40;;;;;;;2.42;51.64;96789.53;5040640;28;20534;-88
2021/03/21 00:54:44;;;;;;;6.53;3.80;;;;;;;2.41;51.33;96790.78;5040203;28;20447;-88
2021/03/21 00:57:10;;;;;;;4.60;3.33;;;;;;;2.48;51.30;96791.03;5039798;28;20510;-88
2021/03/21 00:59:37;;;;;;;7.13;3.83;;;;;;;2.44;51.27;96790.56;5039808;28;20443;-89
2021/03/21 01:02:04;;;;;;;7.70;4.23;;;;;;;2.44;51.53;96785.22;5039517;28;20514;-89
2021/03/21 01:04:30;;;;;;;5.33;3.30;;;;;;;2.47;51.88;96780.88;5039662;28;20461;-89
2021/03/21 01:06:56;;;;;;;8.57;4.07;;;;;;;2.45;51.72;96777.94;5039665;28;20469;-89
2021/03/21 01:09:24;;;;;;;8.40;4.00;;;;;;;2.51;51.32;96782.09;5039813;28;20443;-89
2021/03/21 01:11:51;;;;;;;9.63;4.00;;;;;;;2.40;51.40;96771.41;5039925;28;20916;-89
2021/03/21 01:14:18;;;;;;;6.10;4.23;;;;;;;2.46;51.30;96766.84;5039515;28;20444;-87
2021/03/21 01:16:46;;;;;;;6.60;3.27;;;;;;;2.53;50.99;96768.31;5039699;28;20451;-88
2021/03/21 01:19:16;;;;;;;6.77;3.87;;;;;;;2.50;51.03;96763.94;5039741;28;20448;-88
2021/03/21 01:21:44;;;;;;;5.20;3.37;;;;;;;2.44;51.17;96758.59;5039682;28;20941;-87
2021/03/21 01:24:12;;;;;;;6.27;3.30;;;;;;;2.52;50.99;96764.19;5039441;28;20483;-87
2021/03/21 01:26:38;;;;;;;5.17;3.20;;;;;;;2.52;50.59;96750.88;5039592;28;20739;-88
2021/03/21 01:29:05;;;;;;;7.30;4.00;;;;;;;2.45;50.84;96746.72;5038743;28;20442;-88
2021/03/21 01:31:31;;;;;;;4.67;3.60;;;;;;;2.46;51.11;96752.78;5038976;28;20435;-87
2021/03/21 01:33:57;;;;;;;6.13;3.53;;;;;;;2.47;51.04;96747.00;5038585;28;20443;-89
2021/03/21 01:36:27;;;;;;;6.10;3.73;;;;;;;2.50;50.45;96745.31;5039010;28;20516;-88
2021/03/21 01:38:55;;;;;;;8.10;4.40;;;;;;;2.51;50.81;96749.41;5039329;28;20551;-88
2021/03/21 01:41:26;;;;;;;4.40;3.50;;;;;;;2.47;50.96;96740.94;5039078;28;20529;-88
2021/03/21 01:43:52;;;;;;;7.20;4.23;;;;;;;2.53;50.78;96741.69;5038217;28;20482;-88
2021/03/21 01:46:24;;;;;;;5.70;3.70;;;;;;;2.54;50.31;96737.81;5039477;28;20523;-88
2021/03/21 01:48:53;;;;;;;3.87;3.20;;;;;;;2.49;50.54;96744.56;5038473;28;20480;-88
2021/03/21 01:51:25;;;;;;;9.93;4.70;;;;;;;2.49;50.65;96735.84;5038544;28;20538;-88
2021/03/21 01:53:55;;;;;;;7.63;3.50;;;;;;;2.53;50.60;96733.72;5039099;28;20440;-89
2021/03/21 01:56:21;;;;;;;5.17;3.33;;;;;;;2.55;50.72;96726.69;5038799;28;20530;-88
2021/03/21 01:58:52;;;;;;;6.77;3.50;;;;;;;2.54;50.88;96727.88;5037233;28;21046;-88
2021/03/21 02:01:25;;;;;;;4.97;3.00;;;;;;;2.54;50.63;96727.16;5038630;28;20499;-87
2021/03/21 02:03:51;;;;;;;6.50;3.83;;;;;;;2.53;50.89;96720.41;5038301;28;20562;-88
2021/03/21 02:06:29;;;;;;;6.27;4.17;;;;;;;2.54;50.96;96721.81;5038347;28;20438;-88
2021/03/21 02:09:02;;;;;;;6.27;4.23;;;;;;;2.60;51.23;96725.28;5038237;28;20467;-88
2021/03/21 02:11:50;;;;;;;6.57;4.50;;;;;;;2.48;51.36;96716.47;5038415;28;20501;-87
2021/03/21 02:14:24;;;;;;;6.47;3.60;;;;;;;2.62;50.13;96718.25;5038867;28;20506;-86
2021/03/21 02:17:00;;;;;;;7.87;4.23;;;;;;;2.65;49.82;96719.22;5037832;28;20507;-86
2021/03/21 02:19:58;;;;;;;6.30;4.00;;;;;;;2.59;50.10;96716.56;5038129;28;20487;-87
2021/03/21 02:22:33;;;;;;;7.80;4.00;;;;;;;2.52;50.53;96708.28;5037590;28;20411;-87
2021/03/21 02:25:22;;;;;;;5.00;3.73;;;;;;;2.49;50.04;96703.91;5037200;28;20470;-87
2021/03/21 02:28:06;;;;;;;11.50;4.00;;;;;;;2.58;49.73;96706.38;5038147;28;20499;-87
2021/03/21 02:30:38;;;;;;;5.63;3.50;;;;;;;2.57;49.52;96694.25;5038892;28;20472;-86
2021/03/21 02:33:10;;;;;;;6.67;3.20;;;;;;;2.59;49.48;96702.50;5045922;28;20524;-87
2021/03/21 02:35:42;;;;;;;4.80;3.43;;;;;;;2.59;49.34;96694.50;5045483;28;20488;-86
2021/03/21 02:38:13;;;;;;;4.17;3.10;;;;;;;2.55;49.10;96697.41;5049484;28;20478;-88
2021/03/21 02:40:43;;;;;;;5.10;3.20;;;;;;;2.48;48.69;96697.09;5056524;28;20427;-89
2021/03/21 02:43:15;;;;;;;5.87;3.47;;;;;;;2.41;49.41;96681.59;5056922;28;20454;-87
2021/03/21 02:45:45;;;;;;;7.23;3.47;;;;;;;2.41;49.92;96677.00;5051078;28;20475;-89
2021/03/21 02:48:15;;;;;;;4.63;3.57;;;;;;;2.41;49.48;96682.31;5057035;28;20467;-89
2021/03/21 02:50:45;;;;;;;7.20;3.60;;;;;;;2.48;50.06;96686.47;5054090;28;20450;-86
2021/03/21 02:53:18;;;;;;;8.20;3.60;;;;;;;2.46;49.41;96680.91;5040767;28;20412;-87
2021/03/21 02:55:48;;;;;;;8.70;3.77;;;;;;;2.50;49.59;96684.78;5040464;28;20574;-87
2021/03/21 02:58:18;;;;;;;6.40;3.40;;;;;;;2.50;49.60;96670.75;5041225;28;20485;-87
2021/03/21 03:00:49;;;;;;;5.57;3.47;;;;;;;2.48;49.77;96665.88;5037944;28;20483;-87
2021/03/21 03:03:18;;;;;;;6.73;2.90;;;;;;;2.53;49.80;96659.88;5039439;28;20510;-87
2021/03/21 03:05:49;;;;;;;4.67;3.83;;;;;;;2.63;49.71;96663.06;5042199;28;20944;-87
2021/03/21 03:08:19;;;;;;;4.90;3.93;;;;;;;2.54;50.11;96657.91;5041361;28;20988;-86
2021/03/21 03:10:50;;;;;;;7.80;4.20;;;;;;;2.56;50.02;96653.59;5041535;28;20458;-87
2021/03/21 03:13:20;;;;;;;5.37;3.57;;;;;;;2.52;50.50;96655.00;5042196;28;20494;-87
2021/03/21 03:15:48;;;;;;;4.90;3.40;;;;;;;2.45;50.09;96653.53;5041840;28;20530;-87
2021/03/21 03:18:27;;;;;;;4.80;3.67;;;;;;;2.35;50.22;96648.91;5041816;28;20600;-87
2021/03/21 03:21:01;;;;;;;5.87;3.73;;;;;;;2.36;50.87;96653.00;5041460;28;20490;-87
2021/03/21 03:23:32;;;;;;;4.77;3.53;;;;;;;2.36;51.27;96651.06;5040926;28;20411;-87
2021/03/21 03:26:04;;;;;;;5.10;2.90;;;;;;;2.40;51.00;96642.88;5041553;28;20430;-87
2021/03/21 03:28:35;;;;;;;5.63;3.10;;;;;;;2.39;51.01;96639.47;5040740;28;20437;-89
2021/03/21 03:31:09;;;;;;;5.30;3.07;;;;;;;2.44;51.12;96646.78;5042102;28;20434;-89
2021/03/21 03:33:36;;;;;;;5.40;3.47;;;;;;;2.39;51.47;96634.16;5041235;28;20498;-88
2021/03/21 03:36:04;;;;;;;5.23;2.97;;;;;;;2.42;51.45;96638.50;5041204;28;20439;-89
2021/03/21 03:38:30;;;;;;;6.53;3.30;;;;;;;2.45;51.60;96631.50;5040953;28;20534;-89
2021/03/21 03:41:00;;;;;;;8.70;4.33;;;;;;;2.49;51.64;96635.41;5040565;28;20435;-89
2021/03/21 03:43:36;;;;;;;4.80;3.27;;;;;;;2.48;51.74;96631.28;5041225;28;20824;-89
2021/03/21 03:46:12;;;;;;;8.40;3.80;;;;;;;2.50;51.45;96636.88;5041213;28;20439;-89
2021/03/21 03:48:46;;;;;;;8.07;3.80;;;;;;;2.51;51.67;96624.25;5041061;28;20462;-89
2021/03/21 03:51:19;;;;;;;6.33;3.97;;;;;;;2.50;52.19;96622.81;5041508;28;20428;-89
2021/03/21 03:53:52;;;;;;;6.33;3.63;;;;;;;2.43;52.11;96617.94;5040977;28;20470;-89
2021/03/21 03:56:22;;;;;;;5.20;2.90;;;;;;;2.45;52.32;96626.16;5040831;28;20443;-89
2021/03/21 03:58:58;;;;;;;3.80;2.90;;;;;;;2.46;52.54;96627.63;5040683;28;20463;-89
2021/03/21 04:01:33;;;;;;;4.67;3.63;;;;;;;2.44;52.48;96632.72;5041280;28;20414;-89
2021/03/21 04:04:12;;;;;;;4.13;3.30;;;;;;;2.40;52.60;96632.22;5040938;28;20847;-89
2021/03/21 04:06:44;;;;;;;4.90;3.33;;;;;;;2.47;52.76;96631.78;5040816;28;20495;-88
2021/03/21 04:09:17;;;;;;;6.60;4.30;;;;;;;2.48;52.67;96622.56;5040496;28;20412;-87
2021/03/21 04:11:50;;;;;;;4.63;3.60;;;;;;;2.41;52.51;96623.03;5041576;28;20557;-88
2021/03/21 04:14:22;;;;;;;5.80;3.27;;;;;;;2.36;53.11;96616.47;5039747;28;20420;-88
2021/03/21 04:16:55;;;;;;;7.70;4.20;;;;;;;2.38;53.41;96600.03;5040254;28;20453;-88
2021/03/21 04:19:28;;;;;;;6.60;3.93;;;;;;;2.43;53.55;96615.28;5040528;28;20423;-88
2021/03/21 04:21:58;;;;;;;6.17;3.67;;;;;;;2.41;53.06;96610.44;5040688;28;20428;-89
2021/03/21 04:24:30;;;;;;;7.00;3.93;;;;;;;2.35;53.43;96617.66;5039804;28;20983;-87
2021/03/21 04:27:02;;;;;;;6.93;3.53;;;;;;;2.35;53.28;96608.97;5039973;28;20519;-88
2021/03/21 04:29:32;;;;;;;4.33;3.10;;;;;;;2.37;53.41;96606.56;5040226;28;20422;-88
2021/03/21 04:32:06;;;;;;;7.90;4.53;;;;;;;2.37;53.46;96606.56;5040424;28;20443;-89
2021/03/21 04:34:34;;;;;;;8.57;4.10;;;;;;;2.37;53.74;96604.63;5040709;28;20435;-89
2021/03/21 04:37:03;;;;;;;6.87;4.27;;;;;;;2.44;53.88;96603.44;5039877;28;20932;-89
2021/03/21 04:39:33;;;;;;;7.90;3.53;;;;;;;2.49;54.12;96600.78;5039972;28;20522;-89
2021/03/21 04:42:03;;;;;;;7.67;4.40;;;;;;;2.46;53.68;96606.34;5039275;28;20455;-88
2021/03/21 04:44:36;;;;;;;8.10;4.13;;;;;;;2.44;54.09;96590.13;5039389;28;20525;-89
2021/03/21 04:47:09;;;;;;;6.33;3.30;;;;;;;2.51;54.50;96592.31;5039952;28;20831;-89
2021/03/21 04:49:36;;;;;;;6.50;3.83;;;;;;;2.54;54.29;96594.00;5040115;28;20447;-88
2021/03/21 04:52:12;;;;;;;5.57;3.80;;;;;;;2.54;54.02;96588.69;5040678;28;20546;-88
2021/03/21 04:54:39;;;;;;;6.33;3.80;;;;;;;2.56;54.10;96578.28;5040473;28;20455;-88
2021/03/21 04:57:20;;;;;;;6.83;3.30;;;;;;;2.60;53.89;96581.47;5040092;28;20516;-87
2021/03/21 04:59:47;;;;;;;5.67;3.23;;;;;;;2.62;54.19;96573.72;5039232;28;20474;-88
2021/03/21 05:02:17;;;;;;;5.83;3.20;;;;;;;2.69;53.83;96567.91;5040312;28;20479;-88
2021/03/21 05:04:47;;;;;;;7.23;3.83;;;;;;;2.60;54.24;96563.50;5039966;28;20832;-87
2021/03/21 05:07:25;;;;;;;5.33;3.53;;;;;;;2.61;54.42;96572.97;5040226;28;20456;-88
2021/03/21 05:09:56;;;;;;;6.80;3.30;;;;;;;2.58;55.04;96573.94;5041031;28;20431;-88
2021/03/21 05:12:31;;;;;;;4.50;3.47;;;;;;;2.54;54.97;96570.78;5040734;28;20466;-88
2021/03/21 05:15:03;;;;;;;7.20;4.40;;;;;;;2.58;55.06;96578.53;5040433;28;20867;-88
2021/03/21 05:17:46;;;;;;;6.40;3.60;;;;;;;2.48;56.23;96583.34;5040782;28;20495;-88
2021/03/21 05:20:18;;;;;;;6.07;3.50;;;;;;;2.55;55.80;96584.81;5040316;28;20503;-89
2021/03/21 05:22:50;;;;;;;4.77;3.80;;;;;;;2.55;55.72;96596.19;5040947;28;20562;-89
2021/03/21 05:25:21;;;;;;;7.17;4.07;;;;;;;2.54;55.63;96586.75;5040120;28;20479;-87
2021/03/21 05:27:55;;;;;;;6.90;3.60;;;;;;;2.51;55.98;96589.63;5056909;28;20470;-87
2021/03/21 05:30:26;;;;;;;8.90;4.60;;;;;;;2.57;55.71;96588.44;5059544;28;20507;-88
2021/03/21 05:32:53;;;;;;;5.00;3.33;;;;;;;2.67;55.56;96589.69;5059371;28;20431;-87
2021/03/21 05:35:23;;;;;;;5.70;4.23;;;;;;;2.60;55.63;96600.09;5059467;28;20420;-88
2021/03/21 05:37:59;;;;;;;7.50;3.80;;;;;;;2.50;56.51;96598.84;5059471;28;20453;-87
2021/03/21 05:41:14;;;;;;;4.97;4.00;;;;;;;2.55;56.55;96606.13;5058982;28;20426;-88
2021/03/21 05:44:08;;;;;;;5.50;3.70;;;;;;;2.44;56.04;96600.78;5024865;28;20435;-89
2021/03/21 05:47:06;;;;;;;6.30;4.20;;;;;;;2.51;56.28;96598.34;5032152;28;20470;-88
2021/03/21 05:49:47;;;;;;;6.23;3.70;;;;;;;2.55;56.69;96588.22;5058828;28;20403;-87
2021/03/21 05:52:51;;;;;;;6.43;4.20;;;;;;;2.65;56.44;96594.06;5058993;28;20434;-89
2021/03/21 05:55:43;;;;;;;5.40;3.20;;;;;;;2.57;56.33;96585.06;5059287;28;20420;-87
2021/03/21 05:58:36;;;;;;;10.27;4.67;;;;;;;2.57;57.01;96582.38;5059005;28;20451;-88
2021/03/21 06:01:14;;;;;;;7.27;4.60;;;;;;;2.53;57.41;96593.31;5058679;28;20447;-87
2021/03/21 06:04:11;;;;;;;4.53;3.50;;;;;;;2.59;57.35;96580.72;5058699;28;20482;-88
2021/03/21 06:07:23;;;;;;;5.50;3.60;;;;;;;2.70;57.17;96564.75;5058845;28;20431;-88
2021/03/21 06:10:20;;;;;;;5.60;3.70;;;;;;;2.71;56.72;96565.47;5058635;28;20498;-88
2021/03/21 06:12:56;;;;;;;8.23;4.40;;;;;;;2.72;56.86;96558.22;5058779;28;20434;-88
2021/03/21 06:15:46;;;;;;;8.20;4.20;;;;;;;2.76;57.19;96559.44;5052130;28;20402;-88
2021/03/21 06:18:36;;;;;;;5.67;3.90;;;;;;;2.80;57.21;96565.25;5051520;28;20445;-88
2021/03/21 06:21:38;;;;;;;5.27;3.63;;;;;;;2.78;57.02;96570.34;5057863;28;20438;-89
2021/03/21 06:24:34;;;;;;;6.60;3.30;;;;;;;2.80;57.11;96564.53;5058051;28;20459;-87
2021/03/21 06:27:32;;;;;;;8.10;3.80;;;;;;;2.82;56.93;96560.16;5057972;28;20412;-88
2021/03/21 06:30:16;;;;;;;6.37;3.70;;;;;;;2.79;56.90;96555.78;5012329;28;20448;-87
2021/03/21 06:33:07;;;;;;;5.13;3.33;;;;;;;2.82;57.57;96557.50;5058520;28;20469;-86
2021/03/21 06:35:53;;;;;;;5.80;3.23;;;;;;;2.87;57.06;96564.78;5058424;28;20446;-89
2021/03/21 06:38:39;;;;;;;5.50;3.30;;;;;;;2.91;57.13;96561.88;5058172;28;20526;-88
2021/03/21 06:41:29;;;;;;;7.97;4.10;;;;;;;2.89;56.99;96565.00;5058216;28;20417;-88
2021/03/21 06:44:34;;;;;;;12.00;4.77;;;;;;;2.74;57.23;96553.13;5058037;28;20457;-88
2021/03/21 06:47:27;;;;;;;6.97;4.30;;;;;;;2.89;56.52;96559.69;5050452;28;20439;-88
2021/03/21 06:50:11;;;;;;;7.33;4.40;;;;;;;2.86;56.95;96560.66;5058073;28;20454;-89
2021/03/21 06:52:45;;;;;;;6.77;4.13;;;;;;;2.84;57.81;96565.75;5058111;28;20411;-88
2021/03/21 06:55:17;;;;;;;6.40;3.77;;;;;;;2.81;57.63;96558.72;5058271;28;20454;-88
2021/03/21 06:58:28;;;;;;;9.33;4.30;;;;;;;2.77;57.48;96558.22;5057446;28;20474;-86
2021/03/21 07:01:19;;;;;;;10.37;4.53;;;;;;;2.86;57.24;96557.25;5039526;28;20522;-86
2021/03/21 07:04:33;;;;;;;5.90;3.90;;;;;;;2.83;57.32;96556.28;5047616;28;20484;-88
2021/03/21 07:07:30;;;;;;;4.27;3.57;;;;;;;2.83;57.48;96560.88;5046512;28;20478;-87
2021/03/21 07:10:35;;;;;;;5.67;3.43;;;;;;;2.89;57.70;96548.28;5047916;28;20503;-88
2021/03/21 07:13:39;;;;;;;7.33;3.90;;;;;;;2.88;57.92;96549.53;5041591;28;20441;-89
2021/03/21 07:16:28;;;;;;;6.20;3.40;;;;;;;2.96;57.39;96539.84;5040481;28;20537;-89
2021/03/21 07:19:36;;;;;;;5.13;3.47;;;;;;;2.92;57.25;96548.06;5040797;28;20467;-88
2021/03/21 07:22:31;;;;;;;6.60;3.13;;;;;;;2.93;57.75;96538.88;5040243;28;20436;-89
2021/03/21 07:25:39;;;;;;;8.00;3.57;;;;;;;3.01;57.70;96539.81;5041740;28;20538;-88
2021/03/21 07:28:21;;;;;;;7.10;3.93;;;;;;;3.04;57.42;96536.19;5056504;28;20466;-88
2021/03/21 07:31:00;;;;;;;6.90;3.80;;;;;;;3.04;57.67;96540.78;5057559;28;20494;-88
2021/03/21 07:33:39;;;;;;;7.37;4.37;;;;;;;3.04;57.30;96530.84;5057748;28;20386;-89
2021/03/21 07:36:21;;;;;;;6.90;4.60;;;;;;;3.01;57.64;96544.41;5058018;28;20426;-87
2021/03/21 07:39:18;;;;;;;6.43;3.60;;;;;;;3.13;57.56;96551.94;5057759;28;20445;-88
2021/03/21 07:42:12;;;;;;;5.50;4.03;;;;;;;3.18;57.59;96551.22;5057877;28;20394;-88
2021/03/21 07:45:00;;;;;;;9.93;3.50;;;;;;;3.24;57.19;96543.22;5048285;28;20488;-87
2021/03/21 07:47:54;;;;;;;5.10;3.37;;;;;;;3.30;57.10;96556.53;5043352;28;21035;-87
2021/03/21 07:50:40;;;;;;;6.20;3.47;;;;;;;3.30;57.36;96553.88;5054599;28;20436;-88
2021/03/21 07:53:20;;;;;;;6.80;4.20;;;;;;;3.34;57.60;96555.09;5060733;28;20435;-88
2021/03/21 07:55:53;;;;;;;7.50;3.90;;;;;;;3.27;57.56;96552.19;5061266;28;20402;-88
2021/03/21 07:58:28;;;;;;;6.20;3.67;;;;;;;3.35;57.67;96548.56;5052349;28;20467;-86
2021/03/21 08:00:55;;;;;;;4.37;3.50;;;;;;;3.38;57.56;96544.91;5049627;28;20442;-87
2021/03/21 08:03:25;;;;;;;5.93;4.00;;;;;;;3.44;57.30;96539.56;5060669;28;20435;-88
2021/03/21 08:05:54;;;;;;;8.13;4.10;;;;;;;3.44;57.10;96542.22;5060378;28;20581;-88
2021/03/21 08:08:24;;;;;;;5.70;4.27;;;;;;;3.45;56.96;96536.41;5060461;28;20546;-87
2021/03/21 08:10:56;;;;;;;7.27;4.13;;;;;;;3.57;56.87;96539.78;5060755;28;20440;-89
2021/03/21 08:13:28;;;;;;;5.17;3.60;;;;;;;3.61;57.15;96534.91;5060780;28;20421;-88
2021/03/21 08:15:54;;;;;;;5.73;4.10;;;;;;;3.62;57.09;96539.78;5061027;28;20409;-87
2021/03/21 08:18:23;;;;;;;6.33;3.93;;;;;;;3.68;57.28;96535.16;5057525;28;20509;-86
2021/03/21 08:20:52;;;;;;;4.47;3.43;;;;;;;3.76;56.70;96530.75;5058871;28;20455;-88
2021/03/21 08:23:22;;;;;;;6.43;3.90;;;;;;;3.75;57.40;96523.25;5060063;28;20429;-89
2021/03/21 08:25:49;;;;;;;7.90;4.50;;;;;;;3.88;57.09;96531.44;5060084;28;20476;-88
2021/03/21 08:28:18;;;;;;;6.10;4.47;;;;;;;3.86;57.24;96525.88;5060036;28;20466;-88
2021/03/21 08:30:50;;;;;;;6.10;4.20;;;;;;;3.93;56.82;96511.28;5060558;28;20409;-87
2021/03/21 08:33:29;;;;;;;6.20;3.90;;;;;;;4.09;56.86;96507.81;5060292;28;20449;-89
2021/03/21 08:36:17;;;;;;;6.77;4.77;;;;;;;4.17;56.53;96506.81;5060004;28;20421;-88
2021/03/21 08:38:59;;;;;;;5.23;3.67;;;;;;;4.22;56.43;96500.72;5060331;28;20466;-89
2021/03/21 08:41:27;;;;;;;9.43;3.83;;;;;;;4.29;56.96;96507.50;5060416;28;20459;-89
2021/03/21 08:44:00;;;;;;;7.20;4.97;;;;;;;4.33;57.05;96499.91;5060157;28;20523;-90
2021/03/21 08:46:27;;;;;;;8.67;4.00;;;;;;;4.53;55.85;96498.84;5060620;28;20412;-90
2021/03/21 08:49:04;;;;;;;7.60;4.23;;;;;;;4.47;56.00;96498.16;5060246;28;20453;-89
2021/03/21 08:51:39;;;;;;;5.67;3.80;;;;;;;4.59;55.69;96488.84;5060408;28;20429;-88
2021/03/21 08:54:14;;;;;;;5.90;3.83;;;;;;;4.69;55.78;96488.03;5060456;28;20401;-88
2021/03/21 08:56:42;;;;;;;6.77;3.60;;;;;;;4.75;55.61;96482.66;5060438;28;20453;-88
2021/03/21 08:59:22;;;;;;;7.43;4.20;;;;;;;4.81;55.20;96477.97;5060005;28;20488;-89
2021/03/21 09:02:03;;;;;;;5.00;3.87;;;;;;;4.88;54.93;96474.03;5059861;28;20458;-90
2021/03/21 09:04:30;;;;;;;11.73;4.90;;;;;;;4.73;54.77;96469.06;5059477;28;20471;-91
2021/03/21 09:07:15;;;;;;;5.20;3.10;;;;;;;4.71;54.64;96474.16;5059482;28;20435;-90
2021/03/21 09:09:42;;;;;;;5.07;3.83;;;;;;;4.86;54.41;96475.25;5059454;28;20414;-89
2021/03/21 09:12:31;;;;;;;6.10;3.70;;;;;;;4.92;54.21;96477.88;5054674;28;20428;-89
2021/03/21 09:15:24;;;;;;;5.70;4.00;;;;;;;4.92;54.56;96480.56;5054819;28;20527;-88
2021/03/21 09:18:25;;;;;;;7.63;4.93;;;;;;;4.85;54.46;96483.78;5059594;28;20430;-91
2021/03/21 09:21:07;;;;;;;7.20;4.47;;;;;;;4.78;54.39;96487.72;5017458;28;20515;-90
2021/03/21 09:23:39;;;;;;;6.03;3.77;;;;;;;4.69;54.78;96490.72;5059416;28;20419;-90
2021/03/21 09:26:26;;;;;;;8.90;4.40;;;;;;;4.77;54.41;96501.56;5058915;28;20457;-92
2021/03/21 09:28:55;;;;;;;8.70;4.63;;;;;;;4.82;53.88;96493.50;5059347;28;20421;-90
2021/03/21 09:31:23;;;;;;;8.67;5.13;;;;;;;4.75;53.95;96483.38;5059287;28;20505;-91
2021/03/21 09:33:56;;;;;;;7.53;4.87;;;;;;;4.71;54.35;96490.94;5059416;28;20419;-91
2021/03/21 09:36:25;;;;;;;9.30;4.90;;;;;;;4.72;54.72;96491.66;5059084;28;20438;-91
2021/03/21 09:38:56;;;;;;;10.03;4.67;;;;;;;4.82;54.24;96495.47;5059050;28;20452;-92
2021/03/21 09:42:10;;;;;;;7.30;4.90;;;;;;;4.80;54.27;96497.91;5058936;28;20424;-90
2021/03/21 09:44:40;;;;;;;8.17;5.13;;;;;;;4.83;54.61;96496.91;5050461;28;20461;-89
2021/03/21 09:47:19;;;;;;;10.60;5.63;;;;;;;4.82;54.66;96498.84;5046305;28;20511;-89
2021/03/21 09:49:54;;;;;;;10.30;4.67;;;;;;;4.70;55.00;96494.81;5056949;28;20514;-89
2021/03/21 09:52:29;;;;;;;10.87;4.90;;;;;;;4.71;55.22;96501.63;5057455;28;20494;-90
2021/03/21 09:55:07;;;;;;;8.60;5.00;;;;;;;4.89;54.90;96489.56;5058753;28;20431;-89
2021/03/21 09:57:45;;;;;;;9.83;5.10;;;;;;;4.92;54.58;96501.25;5058580;28;20409;-89
2021/03/21 10:00:16;;;;;;;6.57;4.57;;;;;;;4.87;54.71;96497.38;5058639;28;20495;-89
2021/03/21 10:02:45;;;;;;;9.50;4.27;;;;;;;4.71;55.32;96498.22;5058454;28;20402;-90
2021/03/21 10:05:24;;;;;;;12.27;5.90;;;;;;;4.98;55.14;96505.28;5058504;28;20490;-89
2021/03/21 10:07:59;;;;;;;8.87;5.47;;;;;;;5.10;54.86;96498.66;5058361;28;20459;-89
2021/03/21 10:10:32;;;;;;;7.97;4.60;;;;;;;5.12;54.63;96506.91;5058141;28;20411;-90
2021/03/21 10:12:58;;;;;;;6.70;4.33;;;;;;;5.18;54.76;96501.47;5058113;28;20442;-90
2021/03/21 10:15:26;;;;;;;9.40;5.47;;;;;;;5.28;55.04;96508.69;5058268;28;20444;-90
2021/03/21 10:17:55;;;;;;;8.90;4.80;;;;;;;5.37;55.34;96494.25;5057451;28;20457;-90
2021/03/21 10:20:55;;;;;;;9.00;5.10;;;;;;;5.48;55.70;96496.09;5057048;28;20435;-89
2021/03/21 10:23:21;;;;;;;8.13;5.20;;;;;;;5.59;56.10;96506.69;5047430;28;20469;-88
2021/03/21 10:25:54;;;;;;;8.03;5.10;;;;;;;5.58;56.20;96505.97;5052309;28;20477;-89
2021/03/21 10:28:33;;;;;;;10.10;5.97;;;;;;;5.53;58.04;96511.38;5048218;28;20513;-89
2021/03/21 10:31:36;;;;;;;8.00;5.33;;;;;;;5.36;59.95;96514.94;5048987;28;20424;-87
2021/03/21 10:34:46;;;;;;;8.17;5.40;;;;;;;5.44;60.01;96490.31;5051584;28;20428;-88
2021/03/21 10:37:33;;;;;;;9.43;6.10;;;;;;;5.44;61.35;96495.66;5055458;28;20466;-87
2021/03/21 10:40:03;;;;;;;12.13;6.47;;;;;;;5.30;62.38;96498.22;5045588;28;20629;-89
2021/03/21 10:42:52;;;;;;;8.17;5.40;;;;;;;5.31;62.89;96486.28;5041355;28;20538;-91
2021/03/21 10:45:46;;;;;;;12.10;5.50;;;;;;;5.32;63.00;96485.06;5032618;28;20972;-91
2021/03/21 10:48:50;;;;;;;10.73;5.63;;;;;;;5.31;63.33;96486.28;5041814;28;20478;-91
2021/03/21 10:51:16;;;;;;;10.80;6.33;;;;;;;5.13;64.89;96464.84;5041964;28;20456;-90
2021/03/21 10:54:16;;;;;;;11.50;6.10;;;;;;;4.86;68.59;96472.59;5042539;28;20492;-90
2021/03/21 10:56:43;;;;;;;8.70;5.00;;;;;;;4.78;70.43;96490.41;5041211;28;20416;-91
2021/03/21 10:59:24;;;;;;;10.17;6.07;;;;;;;4.85;71.16;96497.16;5041368;28;20433;-91
2021/03/21 11:01:50;;;;;;;11.07;6.60;;;;;;;4.70;72.28;96489.47;5041402;28;20522;-90
2021/03/21 11:04:35;;;;;;;10.23;6.47;;;;;;;4.71;72.77;96488.25;5040996;28;20457;-91
2021/03/21 11:07:12;;;;;;;9.77;6.10;;;;;;;4.99;72.35;96489.97;5041760;28;20535;-91
2021/03/21 11:09:54;;;;;;;12.57;6.87;;;;;;;4.81;73.54;96480.66;5043018;28;20433;-90
2021/03/21 11:12:33;;;;;;;10.70;6.90;;;;;;;4.96;73.60;96473.00;5042099;28;20434;-90
2021/03/21 11:15:16;;;;;;;14.20;8.00;;;;;;;5.05;73.94;96455.91;5042069;28;20485;-89
2021/03/21 11:17:43;;;;;;;9.90;6.77;;;;;;;5.22;73.32;96454.53;5041474;28;20497;-90
2021/03/21 11:20:25;;;;;;;8.37;6.00;;;;;;;5.46;72.29;96463.75;5041674;28;20514;-90
2021/03/21 11:22:51;;;;;;;14.20;7.03;;;;;;;5.61;71.70;96459.44;5040362;28;20427;-90
2021/03/21 11:25:34;;;;;;;10.87;7.20;;;;;;;5.79;70.46;96466.81;5044970;28;20792;-92
2021/03/21 11:28:00;;;;;;;14.00;9.37;;;;;;;5.88;68.88;96466.47;5054094;28;20489;-91
2021/03/21 11:30:32;;;;;;;16.67;7.87;;;;;;;5.87;68.83;96464.28;5100479;22;20566;-91
2021/03/21 11:33:17;;;;;;;12.53;8.57;;;;;;;5.94;68.48;96458.38;5046072;28;20947;-91
2021/03/21 11:35:49;;;;;;;17.67;8.57;;;;;;;5.80;67.47;96456.81;5050945;28;20391;-92
2021/03/21 11:38:34;;;;;;;13.73;8.30;;;;;;;5.91;65.83;96452.09;5049241;28;20486;-91
2021/03/21 11:41:09;;;;;;;10.93;7.43;;;;;;;6.03;65.02;96449.97;5061152;28;20401;-93
2021/03/21 11:43:35;;;;;;;13.73;8.90;;;;;;;6.20;64.67;96458.50;5061339;28;20405;-91
2021/03/21 11:46:13;;;;;;;14.53;9.30;;;;;;;6.16;63.70;96447.38;5060078;28;20490;-93
2021/03/21 11:48:40;;;;;;;15.37;8.20;;;;;;;6.18;63.24;96439.53;5060765;28;20448;-91
2021/03/21 11:51:14;;;;;;;12.30;7.97;;;;;;;6.16;63.58;96436.66;5060897;28;20514;-92
2021/03/21 11:53:40;;;;;;;8.97;6.73;;;;;;;6.28;62.72;96448.66;5044352;28;20545;-93
2021/03/21 11:56:19;;;;;;;9.10;6.53;;;;;;;6.14;62.11;96451.78;5060362;28;20431;-92
2021/03/21 11:58:49;;;;;;;12.57;7.17;;;;;;;6.07;61.76;96461.13;5060730;28;20473;-89
2021/03/21 12:01:23;;;;;;;10.57;7.13;;;;;;;6.15;61.78;96459.31;5061258;28;20412;-92
2021/03/21 12:03:59;;;;;;;11.37;7.57;;;;;;;6.10;62.25;96454.75;5060381;28;20443;-94
2021/03/21 12:06:43;;;;;;;10.30;7.20;;;;;;;6.15;61.77;96447.88;5060691;28;20476;-92
2021/03/21 12:09:13;;;;;;;13.83;7.20;;;;;;;6.11;62.70;96450.13;5059981;28;20435;-91
2021/03/21 12:11:44;;;;;;;10.97;6.60;;;;;;;6.09;62.80;96447.94;5060136;28;20443;-95
2021/03/21 12:14:47;;;;;;;11.00;7.10;;;;;;;6.12;63.00;96444.25;5060285;28;20429;-89
2021/03/21 12:17:39;;;;;;;13.23;7.37;;;;;;;6.15;62.66;96448.59;5060534;28;20482;-89
2021/03/21 12:20:32;;;;;;;15.93;6.80;;;;;;;6.16;63.40;96443.97;5056990;28;20414;-92
2021/03/21 12:22:59;;;;;;;9.10;6.20;;;;;;;6.10;63.95;96454.03;5059542;28;20500;-89
2021/03/21 12:25:30;;;;;;;10.33;6.63;;;;;;;6.17;63.22;96450.78;5058932;28;20490;-89